Menifee, California
Current Conditions -  °F | °C
As of 6:15 AM on Sunday 21 Dec 2014 (Local Time) from KF70 Reporting Station
Overcast Overcast  
Wind Chill: 43°   Ceiling: 200
Heat Index: 43°   Visibility: 0.5mi
Dew Point: 43°   Wind: 3mph
Humidity: 100%   Direction: 40°NE
Pressure: 30.14"   Gusts: NA
Location:  33.66°N, 117.18°W
Report Text: KF70 211415Z AUTO 04003KT 1/2SM OVC002 06/06 A3014 RMK AO1
Loading
Personal Weather Stations






























Interactive Weather Map New forecast layout! Learn more

10-Day Weather Forecast

Advertisements
Track Severe Weather on mobile